Terminal Aerodrome Forecast
Issued by NWS

Current Version | Previous Version | Text Only | Print | Product List | Glossary Off
Versions: 1 2 3 4 5 6 7 8 9 10 11 12 13

660
FTUS41 KILN 220533
TAFLUK
TAF
KLUK 220533Z 2206/2306 36012G20KT P6SM SKC
     FM221300 04010G18KT P6SM SKC
     FM221800 05009KT P6SM SKC
     FM230000 06005KT P6SM SCT250=

USA.gov is the U.S. government's official web portal to all federal, state and local government web resources and services.